Nashua, Iowa
Current Conditions -  °F | °C
As of 7:15 AM on Friday 24 Oct 2014 (Local Time) from KCCY Reporting Station
Moderate Fog Moderate Fog  
Wind Chill: 42°   Ceiling: 200
Heat Index: 46°   Visibility: 0mi
Dew Point: 46°   Wind: 9mph
Humidity: 100%   Direction: 130°SE
Pressure: 29.98"   Gusts: NA
Location:  42.95°N, 92.54°W
Report Text: KCCY 241215Z AUTO 13008KT M1/4SM FG OVC002 08/08 A2998 RMK AO2
Loading
Personal Weather Stations






























Interactive Weather Map
Tropical Storm Tracking
New forecast layout! Learn more

10-Day Weather Forecast

Advertisements
Track Severe Weather on mobile